West Van Lear, Kentucky
Current Conditions -  °F | °C
As of 7:15 PM on Saturday 25 Oct 2014 (Local Time) from KSJS Reporting Station
Clear Clear  
Wind Chill: 62°   Ceiling: Unl
Heat Index: 62°   Visibility: 10mi
Dew Point: 52°   Wind: 3mph
Humidity: 71%   Direction: 250°WSW
Pressure: 29.97"   Gusts: NA
Location:  37.79°N, 82.77°W
Report Text: KSJS 252315Z AUTO 25003KT 10SM CLR 17/11 A2997 RMK AO2 T01650113
Loading
Personal Weather Stations






























Interactive Weather Map
Tropical Storm Tracking
New forecast layout! Learn more

10-Day Weather Forecast

Advertisements
Track Severe Weather on mobile